Time;durP1;ratioP1;P1;durP2;ratioP2;P2;SDS_P1;SDS_P2;PMS_P1;PMS_P2;Temp;Humidity;BMP_temperature;BMP_pressure;BME280_temperature;BME280_humidity;BME280_pressure;Samples;Min_cycle;Max_cycle;Signal;HPM_P1;HPM_P2
2023/09/13 00:02:40;;;;;;;;;;;;;;;17.47;100.00;101328.78;5043839;28;19936;-81
2023/09/13 00:05:26;;;;;;;;;;;;;;;17.45;100.00;101331.59;5031598;28;20613;-82
2023/09/13 00:08:15;;;;;;;;;;;;;;;17.44;100.00;101327.16;5046375;28;19947;-82
2023/09/13 00:11:01;;;;;;;;;;;;;;;17.43;100.00;101324.63;5034227;28;19924;-81
2023/09/13 00:13:46;;;;;;;;;;;;;;;17.42;100.00;101320.22;5047366;28;20268;-81
2023/09/13 00:16:34;;;;;;;;;;;;;;;17.38;100.00;101317.75;5051011;28;19933;-81
2023/09/13 00:19:20;;;;;;;;;;;;;;;17.37;100.00;101325.88;5049674;28;19933;-83
2023/09/13 00:22:06;;;;;;;;;;;;;;;17.35;100.00;101311.75;5046825;28;20099;-82
2023/09/13 00:24:51;;;;;;;;;;;;;;;17.34;100.00;101312.72;5048837;28;19930;-82
2023/09/13 00:27:37;;;;;;;;;;;;;;;17.32;100.00;101306.59;5034812;28;20017;-80
2023/09/13 00:30:23;;;;;;;;;;;;;;;17.31;100.00;101303.06;5031923;28;19936;-80
2023/09/13 00:33:08;;;;;;;;;;;;;;;17.28;100.00;101310.44;5036276;28;20259;-81
2023/09/13 00:35:55;;;;;;;;;;;;;;;17.26;100.00;101310.53;5026674;28;20352;-82
2023/09/13 00:38:44;;;;;;;;;;;;;;;17.24;100.00;101310.66;5045802;28;19924;-81
2023/09/13 00:41:33;;;;;;;;;;;;;;;17.23;100.00;101308.91;5030330;28;19939;-81
2023/09/13 00:44:18;;;;;;;;;;;;;;;17.22;100.00;101307.19;5030516;28;19933;-82
2023/09/13 00:47:04;;;;;;;;;;;;;;;17.20;100.00;101305.59;5016277;28;19935;-81
2023/09/13 00:49:50;;;;;;;;;;;;;;;17.19;100.00;101301.19;5029253;28;19936;-81
2023/09/13 00:52:36;;;;;;;;;;;;;;;17.18;100.00;101303.03;5033496;28;19940;-82
2023/09/13 00:55:22;;;;;;;;;;;;;;;17.17;100.00;101309.31;5047240;28;19985;-82
2023/09/13 00:58:08;;;;;;;;;;;;;;;17.17;100.00;101308.47;5046230;28;20352;-82
2023/09/13 01:00:54;;;;;;;;;;;;;;;17.14;100.00;101308.66;5047051;28;19924;-82
2023/09/13 01:03:40;;;;;;;;;;;;;;;17.11;100.00;101307.06;5045708;28;19936;-82
2023/09/13 01:06:29;;;;;;;;;;;;;;;17.10;100.00;101314.22;5017438;28;19929;-82
2023/09/13 01:09:15;;;;;;;;;;;;;;;17.10;100.00;101310.69;5049743;28;19925;-82
2023/09/13 01:12:01;;;;;;;;;;;;;;;17.10;100.00;101308.00;5049883;28;19928;-81
2023/09/13 01:14:47;;;;;;;;;;;;;;;17.08;100.00;101307.25;5037336;28;19933;-81
2023/09/13 01:17:32;;;;;;;;;;;;;;;17.07;100.00;101300.19;5039859;28;19933;-82
2023/09/13 01:20:21;;;;;;;;;;;;;;;17.05;100.00;101310.16;5050718;28;19924;-82
2023/09/13 01:23:31;;;;;;;;;;;;;;;17.04;100.00;101303.94;5033003;28;20031;-83
2023/09/13 01:26:16;;;;;;;;;;;;;;;17.01;100.00;101298.75;5035504;28;19933;-83
2023/09/13 01:29:02;;;;;;;;;;;;;;;17.00;100.00;101294.34;5050813;28;20065;-82
2023/09/13 01:31:48;;;;;;;;;;;;;;;16.99;100.00;101294.47;5050606;28;19925;-82
2023/09/13 01:34:34;;;;;;;;;;;;;;;16.96;100.00;101306.22;5047840;28;19974;-82
2023/09/13 01:37:19;;;;;;;;;;;;;;;16.94;100.00;101297.47;5046733;28;19935;-82
2023/09/13 01:40:07;;;;;;;;;;;;;;;16.92;100.00;101289.53;5032626;28;19924;-81
2023/09/13 01:42:52;;;;;;;;;;;;;;;16.90;100.00;101291.44;5049196;28;20325;-81
2023/09/13 01:45:40;;;;;;;;;;;;;;;16.88;100.00;101295.19;5031732;28;19931;-81
2023/09/13 01:48:26;;;;;;;;;;;;;;;16.84;100.00;101292.69;5018598;28;20011;-82
2023/09/13 01:51:12;;;;;;;;;;;;;;;16.83;100.00;101285.63;5031454;28;20386;-82
2023/09/13 01:53:58;;;;;;;;;;;;;;;16.82;100.00;101285.72;5032882;28;19977;-82
2023/09/13 01:56:43;;;;;;;;;;;;;;;16.80;100.00;101288.50;5035101;28;20226;-82
2023/09/13 01:59:30;;;;;;;;;;;;;;;16.78;100.00;101297.59;5046717;28;20039;-81
2023/09/13 02:02:17;;;;;;;;;;;;;;;16.78;100.00;101301.09;5030444;28;20392;-81
2023/09/13 02:05:03;;;;;;;;;;;;;;;16.78;100.00;101287.72;5046551;28;20025;-82
2023/09/13 02:07:49;;;;;;;;;;;;;;;16.77;100.00;101288.69;5042771;28;19935;-81
2023/09/13 02:10:34;;;;;;;;;;;;;;;16.78;100.00;101297.59;5039546;28;19940;-81
2023/09/13 02:13:20;;;;;;;;;;;;;;;16.78;100.00;101289.56;5048702;28;20686;-81
2023/09/13 02:16:07;;;;;;;;;;;;;;;16.77;100.00;101298.56;5022052;28;19929;-81
2023/09/13 02:18:53;;;;;;;;;;;;;;;16.77;100.00;101301.22;5045995;28;19974;-82
2023/09/13 02:21:39;;;;;;;;;;;;;;;16.76;100.00;101295.00;5041821;28;19929;-82
2023/09/13 02:24:25;;;;;;;;;;;;;;;16.75;100.00;101292.44;5028359;28;20310;-81
2023/09/13 02:27:11;;;;;;;;;;;;;;;16.70;100.00;101292.72;5046095;28;19932;-81
2023/09/13 02:29:58;;;;;;;;;;;;;;;16.67;100.00;101293.78;5031361;28;20165;-81
2023/09/13 02:32:44;;;;;;;;;;;;;;;16.63;100.00;101289.59;5052057;28;20055;-84
2023/09/13 02:35:30;;;;;;;;;;;;;;;16.60;100.00;101295.13;5018092;28;19993;-81
2023/09/13 02:38:16;;;;;;;;;;;;;;;16.56;100.00;101298.94;5046478;28;19955;-81
2023/09/13 02:41:11;;;;;;;;;;;;;;;16.54;100.00;101303.53;5044134;28;20373;-87
2023/09/13 02:43:57;;;;;;;;;;;;;;;16.51;100.00;101303.75;5044250;28;20699;-81
2023/09/13 02:46:42;;;;;;;;;;;;;;;16.49;100.00;101310.97;5028366;28;19978;-80
2023/09/13 02:49:28;;;;;;;;;;;;;;;16.46;100.00;101306.72;5029072;28;19924;-80
2023/09/13 02:52:14;;;;;;;;;;;;;;;16.47;100.00;101312.91;5047673;28;20019;-81
2023/09/13 02:55:00;;;;;;;;;;;;;;;16.46;100.00;101308.50;5032274;28;19936;-82
2023/09/13 02:57:46;;;;;;;;;;;;;;;16.42;100.00;101316.75;5042433;28;19932;-81
2023/09/13 03:00:32;;;;;;;;;;;;;;;16.35;100.00;101322.56;5046014;28;19929;-81
2023/09/13 03:03:17;;;;;;;;;;;;;;;16.27;100.00;101326.56;5048311;28;20921;-79
2023/09/13 03:06:13;;;;;;;;;;;;;;;16.19;100.00;101330.66;5059890;28;19928;-78
2023/09/13 03:08:58;;;;;;;;;;;;;;;16.12;100.00;101330.19;5061242;28;20288;-77
2023/09/13 03:11:44;;;;;;;;;;;;;;;16.07;100.00;101334.94;5048902;28;19932;-78
2023/09/13 03:14:30;;;;;;;;;;;;;;;15.98;100.00;101339.91;5047057;28;19939;-78
2023/09/13 03:17:15;;;;;;;;;;;;;;;15.87;100.00;101336.97;5045597;28;20015;-79
2023/09/13 03:20:01;;;;;;;;;;;;;;;15.80;100.00;101338.28;5048953;28;19928;-77
2023/09/13 03:22:47;;;;;;;;;;;;;;;15.75;100.00;101338.56;5049500;28;20589;-78
2023/09/13 03:25:33;;;;;;;;;;;;;;;15.70;100.00;101324.63;5046077;28;19928;-78
2023/09/13 03:28:19;;;;;;;;;;;;;;;15.69;100.00;101333.59;5033096;28;20371;-78
2023/09/13 03:31:08;;;;;;;;;;;;;;;15.61;100.00;101326.03;5048080;28;19939;-77
2023/09/13 03:33:54;;;;;;;;;;;;;;;15.52;100.00;101334.59;5044722;28;19928;-77
2023/09/13 03:36:40;;;;;;;;;;;;;;;15.46;100.00;101328.66;5043090;28;20704;-77
2023/09/13 03:39:28;;;;;;;;;;;;;;;15.39;100.00;101337.09;5046960;28;20316;-78
2023/09/13 03:42:14;;;;;;;;;;;;;;;15.37;100.00;101328.34;5045638;28;20413;-78
2023/09/13 03:44:59;;;;;;;;;;;;;;;15.36;100.00;101347.97;5047949;28;22202;-76
2023/09/13 03:47:45;;;;;;;;;;;;;;;15.28;100.00;101343.94;5048365;28;19951;-76
2023/09/13 03:50:32;;;;;;;;;;;;;;;15.21;100.00;101348.75;5046637;28;20014;-79
2023/09/13 03:53:18;;;;;;;;;;;;;;;15.09;100.00;101356.59;5045612;28;19924;-78
2023/09/13 03:56:03;;;;;;;;;;;;;;;15.06;100.00;101366.50;5048731;28;20025;-79
2023/09/13 03:58:49;;;;;;;;;;;;;;;15.07;100.00;101357.53;5045157;28;20011;-77
2023/09/13 04:01:35;;;;;;;;;;;;;;;15.03;100.00;101357.81;5028992;28;19924;-77
2023/09/13 04:04:20;;;;;;;;;;;;;;;15.04;100.00;101357.69;5048265;28;19929;-78
2023/09/13 04:07:06;;;;;;;;;;;;;;;15.03;100.00;101377.31;5045486;28;19928;-79
2023/09/13 04:09:52;;;;;;;;;;;;;;;15.00;100.00;101373.97;5048095;28;20390;-78
2023/09/13 04:12:38;;;;;;;;;;;;;;;14.93;100.00;101378.78;5046501;28;19972;-77
2023/09/13 04:15:24;;;;;;;;;;;;;;;14.85;100.00;101373.00;5045645;28;19932;-77
2023/09/13 04:18:10;;;;;;;;;;;;;;;14.76;100.00;101385.91;5046901;28;19928;-78
2023/09/13 04:20:55;;;;;;;;;;;;;;;14.73;100.00;101396.69;5047330;28;20014;-77
2023/09/13 04:23:41;;;;;;;;;;;;;;;14.64;100.00;101394.53;5047358;28;19935;-78
2023/09/13 04:26:27;;;;;;;;;;;;;;;14.59;100.00;101408.09;5047108;28;20031;-78
2023/09/13 04:29:12;;;;;;;;;;;;;;;14.58;100.00;101427.69;5046234;28;19924;-79
2023/09/13 04:31:58;;;;;;;;;;;;;;;14.53;100.00;101438.59;5047187;28;19932;-78
2023/09/13 04:34:46;;;;;;;;;;;;;;;14.52;100.00;101452.88;5045877;28;20011;-78
2023/09/13 04:37:32;;;;;;;;;;;;;;;14.44;100.00;101476.34;5058760;28;20054;-77
2023/09/13 04:40:17;;;;;;;;;;;;;;;14.36;100.00;101484.75;5045355;28;21609;-78
2023/09/13 04:43:03;;;;;;;;;;;;;;;14.30;100.00;101500.19;5048532;28;19935;-78
2023/09/13 04:45:49;;;;;;;;;;;;;;;14.25;100.00;101498.63;5044236;28;19958;-78
2023/09/13 04:48:34;;;;;;;;;;;;;;;14.24;100.00;101496.91;5048047;28;20018;-77
2023/09/13 04:51:20;;;;;;;;;;;;;;;14.23;100.00;101500.47;5048145;28;19964;-77
2023/09/13 04:54:06;;;;;;;;;;;;;;;14.17;100.00;101508.78;5048986;28;19929;-78
2023/09/13 04:56:52;;;;;;;;;;;;;;;14.09;100.00;101514.50;5051979;28;20627;-77
2023/09/13 04:59:45;;;;;;;;;;;;;;;14.01;100.00;101515.81;5046967;28;19935;-80
2023/09/13 05:02:30;;;;;;;;;;;;;;;13.92;100.00;101517.13;5047118;28;19951;-79
2023/09/13 05:05:16;;;;;;;;;;;;;;;13.88;100.00;101521.75;5049939;28;19968;-79
2023/09/13 05:08:01;;;;;;;;;;;;;;;13.76;100.00;101530.31;5050156;28;19975;-82
2023/09/13 05:10:47;;;;;;;;;;;;;;;13.65;100.00;101542.34;5048574;28;19932;-81
2023/09/13 05:13:33;;;;;;;;;;;;;;;13.57;100.00;101553.34;5062337;28;19932;-79
2023/09/13 05:16:19;;;;;;;;;;;;;;;13.53;100.00;101558.88;5049488;28;19928;-79
2023/09/13 05:19:05;;;;;;;;;;;;;;;13.44;100.00;101560.13;5052429;28;19951;-79
2023/09/13 05:21:51;;;;;;;;;;;;;;;13.38;100.00;101569.25;5048909;28;19935;-77
2023/09/13 05:24:37;;;;;;;;;;;;;;;13.32;100.00;101574.84;5047357;28;19936;-79
2023/09/13 05:27:23;;;;;;;;;;;;;;;13.20;100.00;101576.28;5050483;28;20031;-81
2023/09/13 05:30:09;;;;;;;;;;;;;;;13.11;100.00;101590.84;5036197;28;19966;-77
2023/09/13 05:32:55;;;;;;;;;;;;;;;13.03;100.00;101587.66;5050677;28;20028;-78
2023/09/13 05:35:40;;;;;;;;;;;;;;;12.99;100.00;101592.25;5043960;28;19928;-77
2023/09/13 05:38:26;;;;;;;;;;;;;;;12.98;100.00;101595.84;5049655;28;19959;-79
2023/09/13 05:41:14;;;;;;;;;;;;;;;12.99;100.00;101599.34;5054932;28;19994;-77
2023/09/13 05:44:00;;;;;;;;;;;;;;;13.02;100.00;101591.25;5053721;28;19964;-77
2023/09/13 05:46:45;;;;;;;;;;;;;;;12.99;100.00;101596.69;5050458;28;20501;-78
2023/09/13 05:49:38;;;;;;;;;;;;;;;13.00;100.00;101587.78;5048216;28;19929;-78
2023/09/13 05:52:24;;;;;;;;;;;;;;;13.04;100.00;101595.56;5047687;28;19924;-77
2023/09/13 05:55:12;;;;;;;;;;;;;;;13.08;100.00;101601.59;5046281;28;19986;-78
2023/09/13 05:57:58;;;;;;;;;;;;;;;13.12;100.00;101604.97;5047817;28;20097;-78
2023/09/13 06:00:47;;;;;;;;;;;;;;;13.14;100.00;101605.81;5045984;28;20042;-78
2023/09/13 06:03:33;;;;;;;;;;;;;;;13.17;100.00;101589.69;5044447;28;19925;-79
2023/09/13 06:06:18;;;;;;;;;;;;;;;13.21;100.00;101595.75;5047544;28;19951;-80
2023/09/13 06:09:04;;;;;;;;;;;;;;;13.25;100.00;101600.00;5047012;28;19932;-78
2023/09/13 06:11:50;;;;;;;;;;;;;;;13.28;100.00;101602.50;5047626;28;19933;-79
2023/09/13 06:14:36;;;;;;;;;;;;;;;13.29;100.00;101597.13;5051938;28;19955;-78
2023/09/13 06:17:22;;;;;;;;;;;;;;;13.34;100.00;101598.72;5045748;28;20021;-79
2023/09/13 06:20:08;;;;;;;;;;;;;;;13.36;100.00;101599.53;5049448;28;19982;-79
2023/09/13 06:22:54;;;;;;;;;;;;;;;13.38;100.00;101602.97;5048994;28;19935;-79
2023/09/13 06:25:40;;;;;;;;;;;;;;;13.40;100.00;101591.31;5052740;28;20403;-80
2023/09/13 06:28:25;;;;;;;;;;;;;;;13.46;100.00;101592.91;5047904;28;19964;-80
2023/09/13 06:31:11;;;;;;;;;;;;;;;13.55;100.00;101602.22;5047338;28;19963;-80
2023/09/13 06:33:57;;;;;;;;;;;;;;;13.54;100.00;101582.75;5044914;28;20362;-80
2023/09/13 06:36:42;;;;;;;;;;;;;;;13.58;100.00;101596.78;5057019;28;20009;-80
2023/09/13 06:39:28;;;;;;;;;;;;;;;13.60;100.00;101600.22;5046814;28;19928;-81
2023/09/13 06:42:14;;;;;;;;;;;;;;;13.60;100.00;101599.34;5046469;28;20414;-80
2023/09/13 06:45:00;;;;;;;;;;;;;;;13.62;100.00;101589.53;5045871;28;19933;-80
2023/09/13 06:47:48;;;;;;;;;;;;;;;13.62;100.00;101585.03;5047854;28;19928;-81
2023/09/13 06:50:34;;;;;;;;;;;;;;;13.67;100.00;101583.03;5044465;28;19993;-80
2023/09/13 06:53:20;;;;;;;;;;;;;;;13.73;100.00;101581.03;5047478;28;19936;-79
2023/09/13 06:56:05;;;;;;;;;;;;;;;13.78;100.00;101584.34;5047770;28;19963;-80
2023/09/13 06:58:52;;;;;;;;;;;;;;;13.83;100.00;101584.97;5043539;28;19925;-80
2023/09/13 07:01:39;;;;;;;;;;;;;;;13.86;100.00;101576.84;5042248;28;19925;-80
2023/09/13 07:04:25;;;;;;;;;;;;;;;13.80;100.00;101567.38;5042723;28;19939;-79
2023/09/13 07:07:11;;;;;;;;;;;;;;;13.79;100.00;101583.41;5044904;28;20371;-80
2023/09/13 07:09:57;;;;;;;;;;;;;;;13.80;100.00;101569.16;5047034;28;19932;-80
2023/09/13 07:12:42;;;;;;;;;;;;;;;13.79;100.00;101580.75;5045414;28;19936;-79
2023/09/13 07:15:28;;;;;;;;;;;;;;;13.80;100.00;101580.69;5044513;28;19931;-79
2023/09/13 07:18:14;;;;;;;;;;;;;;;13.83;100.00;101592.94;5057328;28;19939;-79
2023/09/13 07:21:00;;;;;;;;;;;;;;;13.87;100.00;101589.22;5054231;28;19933;-79
2023/09/13 07:23:45;;;;;;;;;;;;;;;13.87;100.00;101596.31;5045637;28;22042;-78
2023/09/13 07:26:31;;;;;;;;;;;;;;;13.89;100.00;101607.78;5045038;28;20675;-79
2023/09/13 07:29:18;;;;;;;;;;;;;;;13.88;100.00;101606.91;5047003;28;20481;-78
2023/09/13 07:32:03;;;;;;;;;;;;;;;13.89;100.00;101619.28;5045650;28;19928;-83
2023/09/13 07:34:49;;;;;;;;;;;;;;;13.92;100.00;101640.44;5048137;28;20512;-86
2023/09/13 07:37:35;;;;;;;;;;;;;;;13.97;100.00;101658.84;5034266;28;19928;-82
2023/09/13 07:40:21;;;;;;;;;;;;;;;14.03;100.00;101671.00;5050644;28;20069;-83
2023/09/13 07:43:09;;;;;;;;;;;;;;;14.05;100.00;101671.81;5047489;28;20399;-82
2023/09/13 07:45:55;;;;;;;;;;;;;;;14.09;100.00;101689.34;5032992;28;19935;-84
2023/09/13 07:48:41;;;;;;;;;;;;;;;14.11;100.00;101698.16;5052017;28;20062;-82
2023/09/13 07:51:27;;;;;;;;;;;;;;;14.11;100.00;101704.34;5049859;28;19932;-81
2023/09/13 07:54:13;;;;;;;;;;;;;;;14.17;100.00;101703.16;5041589;28;19936;-86
2023/09/13 07:56:58;;;;;;;;;;;;;;;14.23;100.00;101718.00;5027776;28;20442;-84
2023/09/13 07:59:44;;;;;;;;;;;;;;;14.30;100.00;101718.56;5025214;28;19928;-82
2023/09/13 08:02:30;;;;;;;;;;;;;;;14.33;100.00;101718.44;5058308;28;19932;-87
2023/09/13 08:05:16;;;;;;;;;;;;;;;14.35;100.00;101732.53;5034293;28;19934;-82
2023/09/13 08:08:03;;;;;;;;;;;;;;;14.36;100.00;101736.94;5045619;28;20516;-81
2023/09/13 08:10:52;;;;;;;;;;;;;;;14.36;100.00;101734.25;5045022;28;19993;-81
2023/09/13 08:13:37;;;;;;;;;;;;;;;14.42;100.00;101743.78;5039071;28;19928;-80
2023/09/13 08:16:23;;;;;;;;;;;;;;;14.48;100.00;101739.00;5045543;28;19936;-81
2023/09/13 08:19:09;;;;;;;;;;;;;;;14.53;100.00;101753.00;5039584;28;19935;-81
2023/09/13 08:21:55;;;;;;;;;;;;;;;14.55;100.00;101766.25;5041894;28;20411;-81
2023/09/13 08:24:43;;;;;;;;;;;;;;;14.51;100.00;101775.31;5044738;28;20022;-84
2023/09/13 08:27:32;;;;;;;;;;;;;;;14.46;100.00;101778.19;5045477;28;20292;-83
2023/09/13 08:30:18;;;;;;;;;;;;;;;14.38;100.00;101781.22;5046492;28;19924;-81
2023/09/13 08:33:07;;;;;;;;;;;;;;;14.34;100.00;101794.75;5046266;28;19928;-83
2023/09/13 08:35:52;;;;;;;;;;;;;;;14.24;100.00;101800.50;5049626;28;20066;-83
2023/09/13 08:38:38;;;;;;;;;;;;;;;14.18;100.00;101799.91;5056300;28;19933;-81
2023/09/13 08:41:23;;;;;;;;;;;;;;;14.09;100.00;101817.16;5050544;28;20297;-81
2023/09/13 08:44:09;;;;;;;;;;;;;;;14.10;100.00;101824.22;5045965;28;19936;-83
2023/09/13 08:46:57;;;;;;;;;;;;;;;14.16;100.00;101823.09;5046891;28;19932;-83
2023/09/13 08:49:42;;;;;;;;;;;;;;;14.21;100.00;101816.63;5048903;28;19924;-82
2023/09/13 08:52:28;;;;;;;;;;;;;;;14.24;100.00;101837.78;5044247;28;20274;-82
2023/09/13 08:55:14;;;;;;;;;;;;;;;14.28;100.00;101842.97;5047493;28;19928;-84
2023/09/13 08:58:00;;;;;;;;;;;;;;;14.32;100.00;101852.56;5041490;28;19924;-82
2023/09/13 09:00:45;;;;;;;;;;;;;;;14.34;100.00;101853.34;5049793;28;19993;-83
2023/09/13 09:03:31;;;;;;;;;;;;;;;14.37;100.00;101866.50;5046532;28;19928;-85
2023/09/13 09:06:17;;;;;;;;;;;;;;;14.36;100.00;101878.09;5047697;28;20766;-84
2023/09/13 09:09:07;;;;;;;;;;;;;;;14.24;100.00;101880.41;5030538;28;19940;-85
2023/09/13 09:11:55;;;;;;;;;;;;;;;14.09;100.00;101881.06;5032428;28;19942;-83
2023/09/13 09:14:45;;;;;;;;;;;;;;;13.92;100.00;101893.31;5031913;28;19989;-87
2023/09/13 09:17:33;;;;;;;;;;;;;;;13.83;100.00;101880.38;5041296;28;20068;-83
2023/09/13 09:20:19;;;;;;;;;;;;;;;13.82;100.00;101882.19;5045570;28;20031;-82
2023/09/13 09:23:05;;;;;;;;;;;;;;;13.82;100.00;101876.88;5046141;28;19936;-82
2023/09/13 09:25:51;;;;;;;;;;;;;;;13.81;100.00;101871.63;5043070;28;20093;-81
2023/09/13 09:28:37;;;;;;;;;;;;;;;13.83;100.00;101869.75;5047068;28;19934;-82
2023/09/13 09:31:25;;;;;;;;;;;;;;;13.91;100.00;101862.31;5047424;28;19924;-81
2023/09/13 09:34:11;;;;;;;;;;;;;;;14.04;100.00;101859.09;5045490;28;19936;-83
2023/09/13 09:37:06;;;;;;;;;;;;;;;14.16;100.00;101879.84;5041464;28;20401;-81
2023/09/13 09:39:52;;;;;;;;;;;;;;;14.28;100.00;101880.25;5044565;28;20017;-82
2023/09/13 09:42:37;;;;;;;;;;;;;;;14.36;100.00;101894.09;5041860;28;19921;-83
2023/09/13 09:45:23;;;;;;;;;;;;;;;14.39;100.00;101888.66;5046265;28;19942;-84
2023/09/13 09:48:09;;;;;;;;;;;;;;;14.44;100.00;101897.25;5047597;28;19920;-85
2023/09/13 09:50:55;;;;;;;;;;;;;;;14.52;100.00;101896.94;5041082;28;19955;-83
2023/09/13 09:53:40;;;;;;;;;;;;;;;14.58;100.00;101899.31;5036493;28;19924;-85
2023/09/13 09:56:26;;;;;;;;;;;;;;;14.61;100.00;101895.66;5046786;28;20156;-87
2023/09/13 09:59:12;;;;;;;;;;;;;;;14.64;100.00;101909.69;5024925;28;19985;-86
2023/09/13 10:01:58;;;;;;;;;;;;;;;14.67;100.00;101898.03;5040192;28;19936;-85
2023/09/13 10:04:44;;;;;;;;;;;;;;;14.72;100.00;101896.03;5042983;28;19935;-85
2023/09/13 10:07:30;;;;;;;;;;;;;;;14.77;100.00;101899.34;5042223;28;20360;-87
2023/09/13 10:10:26;;;;;;;;;;;;;;;14.75;100.00;101898.56;5042461;28;19946;-84
2023/09/13 10:13:15;;;;;;;;;;;;;;;14.69;100.00;101895.28;5040758;28;19982;-86
2023/09/13 10:16:05;;;;;;;;;;;;;;;14.65;100.00;101910.53;5056569;28;19981;-85
2023/09/13 10:18:51;;;;;;;;;;;;;;;14.67;100.00;101909.53;5042828;28;20019;-86
2023/09/13 10:21:37;;;;;;;;;;;;;;;14.73;100.00;101902.22;5034661;28;19959;-86
2023/09/13 10:24:24;;;;;;;;;;;;;;;14.83;100.00;101902.69;5032585;28;19928;-84
2023/09/13 10:27:09;;;;;;;;;;;;;;;14.93;100.00;101904.00;5022167;28;19964;-85
2023/09/13 10:29:56;;;;;;;;;;;;;;;14.99;100.00;101914.34;5045711;28;20019;-90
2023/09/13 10:32:47;;;;;;;;;;;;;;;15.12;100.00;101919.09;5030559;28;20664;-85
2023/09/13 10:35:33;;;;;;;;;;;;;;;15.13;100.00;101926.16;5045025;28;20291;-86
2023/09/13 10:38:37;;;;;;;;;;;;;;;15.07;100.00;101928.19;5027843;28;19933;-86
2023/09/13 10:41:23;;;;;;;;;;;;;;;15.04;100.00;101925.66;5040676;28;19932;-85
2023/09/13 10:44:09;;;;;;;;;;;;;;;15.05;100.00;101939.88;5034951;28;19925;-84
2023/09/13 10:46:55;;;;;;;;;;;;;;;15.07;100.00;101935.31;5036809;28;19935;-85
2023/09/13 10:49:40;;;;;;;;;;;;;;;15.14;100.00;101934.09;5056613;28;19928;-86
2023/09/13 10:52:26;;;;;;;;;;;;;;;15.26;100.00;101943.31;5044362;28;20171;-85
2023/09/13 10:55:12;;;;;;;;;;;;;;;15.35;100.00;101947.34;5044473;28;20028;-91
2023/09/13 10:57:58;;;;;;;;;;;;;;;15.42;100.00;101954.09;5055863;28;19924;-89
2023/09/13 11:00:44;;;;;;;;;;;;;;;15.43;100.00;101958.50;5036717;28;19928;-87
2023/09/13 11:03:29;;;;;;;;;;;;;;;15.43;100.00;101958.50;5038329;28;20463;-86
2023/09/13 11:06:15;;;;;;;;;;;;;;;15.51;100.00;101963.47;5037922;28;19928;-86
2023/09/13 11:09:10;;;;;;;;;;;;;;;15.61;100.00;101966.56;5040005;28;19936;-90
2023/09/13 11:11:56;;;;;;;;;;;;;;;15.60;100.00;101973.69;5039342;28;20010;-91
2023/09/13 11:14:51;;;;;;;;;;;;;;;15.60;100.00;101968.34;5042857;28;19920;-89
2023/09/13 11:17:38;;;;;;;;;;;;;;;15.57;100.00;101978.31;5039226;28;19981;-84
2023/09/13 11:20:28;;;;;;;;;;;;;;;15.54;100.00;101974.03;5040183;28;19941;-83
2023/09/13 11:23:18;;;;;;;;;;;;;;;15.68;100.00;101980.50;5039760;28;19928;-83
2023/09/13 11:26:10;;;;;;;;;;;;;;;15.77;100.00;101981.81;5034389;28;19994;-83
2023/09/13 11:28:58;;;;;;;;;;;;;;;15.80;100.00;101979.84;5033965;28;19928;-85
2023/09/13 11:31:56;;;;;;;;;;;;;;;15.85;100.00;101988.50;5036191;28;20041;-83
2023/09/13 11:34:42;;;;;;;;;;;;;;;15.86;100.00;101994.72;5039464;28;19924;-84
2023/09/13 11:37:28;;;;;;;;;;;;;;;15.82;100.00;101991.34;5037767;28;20019;-82
2023/09/13 11:40:15;;;;;;;;;;;;;;;15.81;100.00;102007.44;5042315;28;19936;-83
2023/09/13 11:43:02;;;;;;;;;;;;;;;15.75;100.00;102003.28;5039719;28;20015;-81
2023/09/13 11:45:48;;;;;;;;;;;;;;;15.78;100.00;102000.44;5037077;28;20786;-81
2023/09/13 11:48:40;;;;;;;;;;;;;;;15.86;100.00;102013.41;5039930;28;20476;-83
2023/09/13 11:51:26;;;;;;;;;;;;;;;15.96;100.00;102024.53;5033677;28;20025;-85
2023/09/13 11:54:18;;;;;;;;;;;;;;;15.97;100.00;102021.78;5036948;28;19925;-85
2023/09/13 11:57:04;;;;;;;;;;;;;;;15.94;100.00;102029.94;5035703;28;19934;-84
2023/09/13 11:59:53;;;;;;;;;;;;;;;15.97;100.00;102024.44;5039655;28;19931;-86
2023/09/13 12:02:43;;;;;;;;;;;;;;;16.02;100.00;102022.41;5040858;28;19933;-87
2023/09/13 12:05:29;;;;;;;;;;;;;;;16.13;100.00;102018.34;5040699;28;19935;-87
2023/09/13 12:08:19;;;;;;;;;;;;;;;16.24;100.00;102020.47;5025419;28;20664;-84
2023/09/13 12:11:06;;;;;;;;;;;;;;;16.31;100.00;102032.59;5040239;28;19963;-86
2023/09/13 12:13:55;;;;;;;;;;;;;;;16.36;100.00;102030.53;5020583;28;19931;-87
2023/09/13 12:16:43;;;;;;;;;;;;;;;16.35;100.00;102047.50;5032673;28;19935;-88
2023/09/13 12:19:28;;;;;;;;;;;;;;;16.27;100.00;102052.38;5037251;28;20021;-85
2023/09/13 12:22:22;;;;;;;;;;;;;;;16.21;100.00;102045.53;5024771;28;21676;-89
2023/09/13 12:25:11;;;;;;;;;;;;;;;16.13;100.00;102050.41;5040746;28;19928;-86
2023/09/13 12:27:57;;;;;;;;;;;;;;;16.10;100.00;102050.53;5021542;28;19935;-85
2023/09/13 12:30:43;;;;;;;;;;;;;;;16.10;100.00;102066.56;5023499;28;19928;-87
2023/09/13 12:33:29;;;;;;;;;;;;;;;16.13;100.00;102072.63;5033263;28;19931;-83
2023/09/13 12:36:17;;;;;;;;;;;;;;;16.16;100.00;102071.63;5038737;28;19971;-85
2023/09/13 12:39:05;;;;;;;;;;;;;;;16.14;100.00;102069.00;5038987;28;19933;-87
2023/09/13 12:41:51;;;;;;;;;;;;;;;16.11;100.00;102062.97;5023531;28;19925;-86
2023/09/13 12:44:38;;;;;;;;;;;;;;;16.10;100.00;102071.91;5049019;28;19933;-84
2023/09/13 12:47:24;;;;;;;;;;;;;;;16.09;100.00;102076.41;5043043;28;21724;-85
2023/09/13 12:50:10;;;;;;;;;;;;;;;16.11;100.00;102066.50;5043129;28;19928;-85
2023/09/13 12:52:55;;;;;;;;;;;;;;;16.26;100.00;102072.03;5031014;28;20423;-85
2023/09/13 12:55:42;;;;;;;;;;;;;;;16.40;100.00;102071.34;5028854;28;19955;-86
2023/09/13 12:58:28;;;;;;;;;;;;;;;16.43;100.00;102080.06;5027835;28;20362;-85
2023/09/13 13:01:14;;;;;;;;;;;;;;;16.19;100.00;102079.50;5032130;28;20097;-87
2023/09/13 13:04:06;;;;;;;;;;;;;;;15.98;100.00;102078.72;5022915;28;20375;-93
2023/09/13 13:06:53;;;;;;;;;;;;;;;15.78;100.00;102088.53;5052365;28;19967;-85
2023/09/13 13:09:39;;;;;;;;;;;;;;;15.58;100.00;102092.16;5029733;28;19928;-86
2023/09/13 13:12:30;;;;;;;;;;;;;;;15.47;100.00;102105.97;5035996;28;20340;-85
2023/09/13 13:15:16;;;;;;;;;;;;;;;15.40;100.00;102105.41;5041099;28;19939;-85
2023/09/13 13:18:07;;;;;;;;;;;;;;;15.37;100.00;102100.22;5041599;28;20300;-93
2023/09/13 13:20:52;;;;;;;;;;;;;;;15.34;100.00;102106.56;5043728;28;20002;-84
2023/09/13 13:23:42;;;;;;;;;;;;;;;15.32;100.00;102107.56;5029836;28;19924;-84
2023/09/13 13:26:28;;;;;;;;;;;;;;;15.32;100.00;102113.75;5038194;28;19943;-89
2023/09/13 13:29:14;;;;;;;;;;;;;;;15.27;100.00;102114.91;5044455;28;19956;-83
2023/09/13 13:31:59;;;;;;;;;;;;;;;15.20;100.00;102120.53;5043248;28;19933;-85
2023/09/13 13:34:45;;;;;;;;;;;;;;;15.09;100.00;102108.59;5038712;28;19986;-88
2023/09/13 13:37:30;;;;;;;;;;;;;;;14.99;100.00;102111.66;5044186;28;19987;-87
2023/09/13 13:40:16;;;;;;;;;;;;;;;14.92;100.00;102112.88;5042507;28;20145;-87
2023/09/13 13:43:02;;;;;;;;;;;;;;;14.80;100.00;102117.81;5045488;28;20173;-84
2023/09/13 13:45:47;;;;;;;;;;;;;;;14.72;100.00;102122.59;5017139;28;20017;-82
2023/09/13 13:48:34;;;;;;;;;;;;;;;14.65;100.00;102119.31;5044751;28;19936;-88
2023/09/13 13:51:19;;;;;;;;;;;;;;;14.60;100.00;102123.09;5038988;28;21796;-78
2023/09/13 13:54:05;;;;;;;;;;;;;;;14.56;100.00;102118.81;5038470;28;20371;-85
2023/09/13 13:56:51;;;;;;;;;;;;;;;14.53;100.00;102115.38;5043467;28;20971;-86
2023/09/13 13:59:44;;;;;;;;;;;;;;;14.60;100.00;102110.63;5048904;28;19933;-83
2023/09/13 14:02:36;;;;;;;;;;;;;;;14.64;100.00;102117.56;5032820;28;20043;-87
2023/09/13 14:05:24;;;;;;;;;;;;;;;14.70;100.00;102121.78;5045788;28;19950;-84
2023/09/13 14:08:13;;;;;;;;;;;;;;;14.79;100.00;102116.09;5045318;28;19929;-83